Camp Richardson, California
Current Conditions -  °F | °C
As of 8:53 AM on Thursday 27 Nov 2014 (Local Time) from KTVL Reporting Station
Clear Clear  
Wind Chill: 56°   Ceiling: Unl
Heat Index: 56°   Visibility: 10mi
Dew Point: 22°   Wind: 9mph
Humidity: 27%   Direction: 170°S
Pressure: 30.34"   Gusts: NA
Location:  38.9467°N, 119.967°W
Report Text: KTVL 271653Z AUTO 17008KT 10SM CLR 13/M06 A3034 RMK AO2 SLP249 T01331056
Loading
Personal Weather Stations






























Interactive Weather Map New forecast layout! Learn more

10-Day Weather Forecast

Advertisements
Track Severe Weather on mobile